createdAt,value
2019-03-02T00:00:37.769Z,12.10
2019-03-02T00:03:06.347Z,12.10
2019-03-02T00:05:34.804Z,12.60
2019-03-02T00:08:03.320Z,12.63
2019-03-02T00:10:31.776Z,14.13
2019-03-02T00:13:00.246Z,14.90
2019-03-02T00:15:30.677Z,12.80
2019-03-02T00:18:00.016Z,13.37
2019-03-02T00:20:28.783Z,14.33
2019-03-02T00:22:57.217Z,12.73
2019-03-02T00:25:25.663Z,14.10
2019-03-02T00:27:57.827Z,14.87
2019-03-02T00:30:24.372Z,15.17
2019-03-02T00:32:52.909Z,16.17
2019-03-02T00:35:21.352Z,15.20
2019-03-02T00:38:10.108Z,15.67
2019-03-02T00:40:38.645Z,16.03
2019-03-02T00:43:07.167Z,16.47
2019-03-02T00:45:35.679Z,17.00
2019-03-02T00:48:04.287Z,16.47
2019-03-02T00:50:36.518Z,19.30
2019-03-02T00:53:04.636Z,16.60
2019-03-02T00:55:33.079Z,18.03
2019-03-02T00:58:01.535Z,16.40
2019-03-02T01:00:30.116Z,16.27
2019-03-02T01:02:58.648Z,16.63
2019-03-02T01:05:27.168Z,16.43
2019-03-02T01:07:56.134Z,17.67
2019-03-02T01:10:25.876Z,17.67
2019-03-02T01:12:54.522Z,17.80
2019-03-02T01:15:22.984Z,17.33
2019-03-02T01:17:51.429Z,18.40
2019-03-02T01:20:19.892Z,17.07
2019-03-02T01:22:51.739Z,17.60
2019-03-02T01:25:18.577Z,19.70
2019-03-02T01:27:47.012Z,17.67
2019-03-02T01:30:34.815Z,18.80
2019-03-02T01:33:03.431Z,19.80
2019-03-02T01:35:37.635Z,17.40
2019-03-02T01:38:25.419Z,19.83
2019-03-02T01:40:53.963Z,19.63
2019-03-02T01:43:41.742Z,20.00
2019-03-02T01:46:10.336Z,21.23
2019-03-02T01:48:38.767Z,22.10
2019-03-02T01:51:07.315Z,20.43
2019-03-02T01:53:35.748Z,21.87
2019-03-02T01:56:06.169Z,22.80
2019-03-02T01:58:53.840Z,20.27
2019-03-02T02:01:24.830Z,21.93
2019-03-02T02:03:54.474Z,21.80
2019-03-02T02:06:23.100Z,23.20
2019-03-02T02:08:57.632Z,23.00
2019-03-02T02:11:26.096Z,22.67
2019-03-02T02:13:54.547Z,22.87
2019-03-02T02:16:23.063Z,22.30
2019-03-02T02:19:10.923Z,22.43
2019-03-02T02:21:40.380Z,22.87
2019-03-02T02:24:08.941Z,21.17
2019-03-02T02:26:37.454Z,22.40
2019-03-02T02:29:25.432Z,21.83
2019-03-02T02:31:53.940Z,24.07
2019-03-02T02:34:23.749Z,21.93
2019-03-02T02:36:58.193Z,23.50
2019-03-02T02:39:28.927Z,23.20
2019-03-02T02:42:00.009Z,22.13
2019-03-02T02:44:25.687Z,21.90
2019-03-02T02:46:54.164Z,22.30
2019-03-02T02:49:22.617Z,22.90
2019-03-02T02:51:52.276Z,21.37
2019-03-02T02:54:23.318Z,21.80
2019-03-02T02:56:54.246Z,20.87
2019-03-02T02:59:21.208Z,20.63
2019-03-02T03:01:49.667Z,20.53
2019-03-02T03:04:18.237Z,22.20
2019-03-02T03:06:46.696Z,21.47
2019-03-02T03:09:17.564Z,20.07
2019-03-02T03:11:46.019Z,21.57
2019-03-02T03:14:15.037Z,21.33
2019-03-02T03:16:44.665Z,21.17
2019-03-02T03:19:13.130Z,24.57
2019-03-02T03:21:41.581Z,21.90
2019-03-02T03:24:10.050Z,22.50
2019-03-02T03:26:39.103Z,21.67
2019-03-02T03:29:09.838Z,21.10
2019-03-02T03:31:37.725Z,22.07
2019-03-02T03:34:06.189Z,22.37
2019-03-02T03:36:35.511Z,20.67
2019-03-02T03:39:23.481Z,20.97
2019-03-02T03:42:03.902Z,20.90
2019-03-02T03:44:32.377Z,20.77
2019-03-02T03:47:01.977Z,22.33
2019-03-02T03:49:34.162Z,22.83
2019-03-02T03:52:03.909Z,22.73
2019-03-02T03:54:31.158Z,23.00
2019-03-02T03:56:59.657Z,21.33
2019-03-02T03:59:28.121Z,21.47
2019-03-02T04:01:57.078Z,23.03
2019-03-02T04:04:29.055Z,23.57
2019-03-02T04:07:01.376Z,22.50
2019-03-02T04:09:27.326Z,22.53
2019-03-02T04:11:55.836Z,22.87
2019-03-02T04:14:43.617Z,24.30
2019-03-02T04:17:12.084Z,21.77
2019-03-02T04:19:40.576Z,21.80
2019-03-02T04:22:12.450Z,22.77
2019-03-02T04:24:41.136Z,21.23
2019-03-02T04:27:11.060Z,22.60
2019-03-02T04:29:49.281Z,21.10
2019-03-02T04:32:10.049Z,22.97
2019-03-02T04:34:38.488Z,23.40
2019-03-02T04:37:07.968Z,22.70
2019-03-02T04:39:36.473Z,22.50
2019-03-02T04:42:04.965Z,21.77
2019-03-02T04:44:33.442Z,22.40
2019-03-02T04:47:02.878Z,22.17
2019-03-02T04:49:33.412Z,20.13
2019-03-02T04:52:04.004Z,21.20
2019-03-02T04:54:37.438Z,22.17
2019-03-02T04:57:02.627Z,21.17
2019-03-02T04:59:31.079Z,19.80
2019-03-02T05:01:59.527Z,21.70
2019-03-02T05:04:28.713Z,19.43
2019-03-02T05:06:58.163Z,21.83
2019-03-02T05:09:26.612Z,22.73
2019-03-02T05:11:55.117Z,20.20
2019-03-02T05:14:23.575Z,20.40
2019-03-02T05:16:52.036Z,22.20
2019-03-02T05:19:20.527Z,20.10
2019-03-02T05:22:08.419Z,21.13
2019-03-02T05:24:36.872Z,20.77
2019-03-02T05:27:05.326Z,19.50
2019-03-02T05:29:34.827Z,17.60
2019-03-02T05:32:03.263Z,17.70
2019-03-02T05:34:31.702Z,19.80
2019-03-02T05:37:02.931Z,18.63
2019-03-02T05:39:30.311Z,18.70
2019-03-02T05:41:58.806Z,18.73
2019-03-02T05:44:27.279Z,18.13
2019-03-02T05:46:57.775Z,17.40
2019-03-02T05:49:26.011Z,18.73
2019-03-02T05:51:54.534Z,18.93
2019-03-02T05:54:22.992Z,16.60
2019-03-02T05:56:51.431Z,18.17
2019-03-02T05:59:22.852Z,17.30
2019-03-02T06:01:50.051Z,17.67
2019-03-02T06:04:18.820Z,19.67
2019-03-02T06:06:50.810Z,19.67
2019-03-02T06:09:18.863Z,18.40
2019-03-02T06:11:47.295Z,18.50
2019-03-02T06:14:15.758Z,21.00
2019-03-02T06:16:44.200Z,21.27
2019-03-02T06:19:12.679Z,19.60
2019-03-02T06:21:42.819Z,20.40
2019-03-02T06:24:11.355Z,22.63
2019-03-02T06:26:39.805Z,20.47
2019-03-02T06:29:08.297Z,20.07
2019-03-02T06:31:36.728Z,19.27
2019-03-02T06:34:05.257Z,19.97
2019-03-02T06:36:33.699Z,19.63
2019-03-02T06:39:03.860Z,21.43
2019-03-02T06:41:33.165Z,20.57
2019-03-02T06:44:02.615Z,21.43
2019-03-02T06:46:31.128Z,20.80
2019-03-02T06:48:59.591Z,20.53
2019-03-02T06:51:28.019Z,20.13
2019-03-02T06:53:56.464Z,21.17
2019-03-02T06:56:24.925Z,21.37
2019-03-02T06:58:53.363Z,19.43
2019-03-02T07:01:24.917Z,20.00
2019-03-02T07:03:51.979Z,19.43
2019-03-02T07:06:20.430Z,21.30
2019-03-02T07:08:51.582Z,20.70
2019-03-02T07:11:20.032Z,20.90
2019-03-02T07:13:48.475Z,21.93
2019-03-02T07:16:20.082Z,21.90
2019-03-02T07:18:54.840Z,21.40
2019-03-02T07:21:23.308Z,20.33
2019-03-02T07:23:51.739Z,21.30
2019-03-02T07:26:20.965Z,22.30
2019-03-02T07:28:49.554Z,21.50
2019-03-02T07:31:18.007Z,22.60
2019-03-02T07:33:46.448Z,22.00
2019-03-02T07:36:14.908Z,21.53
2019-03-02T07:38:43.360Z,22.57
2019-03-02T07:41:11.885Z,21.83
2019-03-02T07:43:42.306Z,22.20
2019-03-02T07:46:11.872Z,21.00
2019-03-02T07:48:40.796Z,21.13
2019-03-02T07:51:10.275Z,22.37
2019-03-02T07:53:44.831Z,22.23
2019-03-02T07:56:13.315Z,21.80
2019-03-02T07:58:41.775Z,21.77
2019-03-02T08:01:12.785Z,21.40
2019-03-02T08:03:40.545Z,25.37
2019-03-02T08:06:08.987Z,22.90
2019-03-02T08:08:37.451Z,21.73
2019-03-02T08:11:05.893Z,20.97
2019-03-02T08:13:36.589Z,19.63
2019-03-02T08:16:13.748Z,20.30
2019-03-02T08:18:42.204Z,19.90
2019-03-02T08:21:10.720Z,20.37
2019-03-02T08:23:39.183Z,20.60
2019-03-02T08:26:07.698Z,20.37
2019-03-02T08:28:36.147Z,21.37
2019-03-02T08:31:05.600Z,21.07
2019-03-02T08:33:34.854Z,20.97
2019-03-02T08:36:03.456Z,20.33
2019-03-02T08:38:31.920Z,19.00
2019-03-02T08:41:01.703Z,21.47
2019-03-02T08:43:37.852Z,21.20
2019-03-02T08:46:25.609Z,22.43
2019-03-02T08:48:54.739Z,21.77
2019-03-02T08:51:25.187Z,20.93
2019-03-02T08:53:59.722Z,21.30
2019-03-02T08:56:28.160Z,20.37
2019-03-02T08:58:57.895Z,21.03
2019-03-02T09:01:27.923Z,20.97
2019-03-02T09:03:57.490Z,20.73
2019-03-02T09:06:25.948Z,19.40
2019-03-02T09:08:54.384Z,22.30
2019-03-02T09:11:22.917Z,19.20
2019-03-02T09:13:51.356Z,20.13
2019-03-02T09:16:19.886Z,19.30
2019-03-02T09:18:48.338Z,20.40
2019-03-02T09:21:16.782Z,20.93
2019-03-02T09:23:45.256Z,20.87
2019-03-02T09:26:14.988Z,20.40
2019-03-02T09:28:43.690Z,20.10
2019-03-02T09:31:12.162Z,19.73
2019-03-02T09:33:40.632Z,19.30
2019-03-02T09:36:09.077Z,21.37
2019-03-02T09:38:37.527Z,20.50
2019-03-02T09:41:05.957Z,21.20
2019-03-02T09:43:34.405Z,22.07
2019-03-02T09:46:02.835Z,19.77
2019-03-02T09:48:31.353Z,20.90
2019-03-02T09:50:59.869Z,19.60
2019-03-02T09:53:28.375Z,20.93
2019-03-02T09:55:58.183Z,21.87
2019-03-02T09:58:26.961Z,21.47
2019-03-02T10:01:04.494Z,22.10
2019-03-02T10:03:33.188Z,21.30
2019-03-02T10:06:01.615Z,22.47
2019-03-02T10:08:30.075Z,21.50
2019-03-02T10:10:58.506Z,21.30
2019-03-02T10:13:29.971Z,20.73
2019-03-02T10:16:00.576Z,21.37
2019-03-02T10:18:28.583Z,21.87
2019-03-02T10:20:57.146Z,21.00
2019-03-02T10:23:25.643Z,21.47
2019-03-02T10:25:54.084Z,21.83
2019-03-02T10:28:34.094Z,23.20
2019-03-02T10:31:02.584Z,21.70
2019-03-02T10:33:32.240Z,21.33
2019-03-02T10:36:01.745Z,20.30
2019-03-02T10:38:31.383Z,21.37
2019-03-02T10:41:00.124Z,20.10
2019-03-02T10:43:28.622Z,21.80
2019-03-02T10:45:57.254Z,20.20
2019-03-02T10:48:25.858Z,22.20
2019-03-02T10:50:56.020Z,20.80
2019-03-02T10:53:25.166Z,19.60
2019-03-02T10:55:54.619Z,21.07
2019-03-02T10:58:42.400Z,20.80
2019-03-02T11:01:11.037Z,19.90
2019-03-02T11:03:39.574Z,20.47
2019-03-02T11:06:21.291Z,21.43
2019-03-02T11:09:01.511Z,20.70
2019-03-02T11:11:33.662Z,19.70
2019-03-02T11:14:06.680Z,20.40
2019-03-02T11:16:44.612Z,19.57
2019-03-02T11:19:24.611Z,20.87
2019-03-02T11:22:00.602Z,19.43
2019-03-02T11:24:50.214Z,19.80
2019-03-02T11:27:32.828Z,20.27
2019-03-02T11:30:19.170Z,19.37
2019-03-02T11:33:14.361Z,20.40
2019-03-02T11:35:54.038Z,20.57
2019-03-02T11:38:30.566Z,20.10
2019-03-02T11:41:09.154Z,20.23
2019-03-02T11:43:38.368Z,19.93
2019-03-02T11:46:08.648Z,20.43
2019-03-02T11:48:48.501Z,19.00
2019-03-02T11:51:19.769Z,20.00
2019-03-02T11:53:55.914Z,19.90
2019-03-02T11:56:46.690Z,17.67
2019-03-02T11:59:22.334Z,19.27
2019-03-02T12:01:52.436Z,16.93
2019-03-02T12:04:40.999Z,17.03
2019-03-02T12:07:11.202Z,15.97
2019-03-02T12:09:44.535Z,15.97
2019-03-02T12:12:14.819Z,17.80
2019-03-02T12:14:47.885Z,14.43
2019-03-02T12:17:48.958Z,15.70
2019-03-02T12:20:35.553Z,15.40
2019-03-02T12:23:22.172Z,15.53
2019-03-02T12:25:56.464Z,15.27
2019-03-02T12:28:26.557Z,15.00
2019-03-02T12:31:08.477Z,14.50
2019-03-02T12:33:44.611Z,15.30
2019-03-02T12:36:17.545Z,13.97
2019-03-02T12:38:49.146Z,13.63
2019-03-02T12:41:19.382Z,12.20
2019-03-02T12:43:55.435Z,11.60
2019-03-02T12:46:31.744Z,11.70
2019-03-02T12:49:06.953Z,11.00
2019-03-02T12:51:39.364Z,9.60
2019-03-02T12:54:20.476Z,10.60
2019-03-02T12:56:50.577Z,9.00
2019-03-02T12:59:20.767Z,9.03
2019-03-02T13:02:10.004Z,9.40
2019-03-02T13:04:46.198Z,10.47
2019-03-02T13:07:16.468Z,9.53
2019-03-02T13:09:52.564Z,9.50
2019-03-02T13:12:28.708Z,10.03
2019-03-02T13:15:09.540Z,10.40
2019-03-02T13:17:46.827Z,12.60
2019-03-02T13:20:28.051Z,11.07
2019-03-02T13:22:58.156Z,10.23
2019-03-02T13:25:40.483Z,10.83
2019-03-02T13:28:10.656Z,11.27
2019-03-02T13:30:43.610Z,10.37
2019-03-02T13:33:34.202Z,10.90
2019-03-02T13:36:21.671Z,10.27
2019-03-02T13:38:57.600Z,10.70
2019-03-02T13:41:30.896Z,10.77
2019-03-02T13:44:10.463Z,9.93
2019-03-02T13:46:49.015Z,9.40
2019-03-02T13:49:19.175Z,9.77
2019-03-02T13:51:58.370Z,9.20
2019-03-02T13:54:28.549Z,9.10
2019-03-02T13:57:01.052Z,7.50
2019-03-02T13:59:48.604Z,7.23
2019-03-02T14:02:27.534Z,7.90
2019-03-02T14:05:05.683Z,6.60
2019-03-02T14:07:51.612Z,9.33
2019-03-02T14:10:33.464Z,8.70
2019-03-02T14:13:21.937Z,6.67
2019-03-02T14:15:55.299Z,6.90
2019-03-02T14:18:28.462Z,6.57
2019-03-02T14:21:01.328Z,6.10
2019-03-02T14:23:40.123Z,7.00
2019-03-02T14:26:19.519Z,6.37
2019-03-02T14:28:52.594Z,6.20
2019-03-02T14:31:25.880Z,6.40
2019-03-02T14:34:08.460Z,12.30
2019-03-02T14:36:47.519Z,5.60
2019-03-02T14:39:27.148Z,7.83
2019-03-02T14:42:13.800Z,4.40
2019-03-02T14:44:44.380Z,5.93
2019-03-02T14:47:20.703Z,4.73
2019-03-02T14:49:53.333Z,4.40
2019-03-02T14:52:28.982Z,4.27
2019-03-02T14:55:01.222Z,5.20
2019-03-02T14:57:38.494Z,4.80
2019-03-02T15:00:27.583Z,5.90
2019-03-02T15:03:15.084Z,6.70
2019-03-02T15:05:57.288Z,3.97
2019-03-02T15:08:37.421Z,4.20
2019-03-02T15:11:04.555Z,3.80
2019-03-02T15:13:37.694Z,3.83
2019-03-02T15:16:19.790Z,4.30
2019-03-02T15:18:52.852Z,4.30
2019-03-02T15:21:34.696Z,3.93
2019-03-02T15:24:04.856Z,3.80
2019-03-02T15:26:39.378Z,4.53
2019-03-02T15:29:18.793Z,3.60
2019-03-02T15:31:54.696Z,3.90
2019-03-02T15:34:24.807Z,3.73
2019-03-02T15:37:03.833Z,4.00
2019-03-02T15:39:53.386Z,2.83
2019-03-02T15:42:23.982Z,3.87
2019-03-02T15:45:10.612Z,3.13
2019-03-02T15:47:43.599Z,3.00
2019-03-02T15:50:17.709Z,3.50
2019-03-02T15:52:51.354Z,2.50
2019-03-02T15:55:24.047Z,3.07
2019-03-02T15:58:10.460Z,3.80
2019-03-02T16:00:50.613Z,3.27
2019-03-02T16:03:36.652Z,3.40
2019-03-02T16:06:16.056Z,4.03
2019-03-02T16:08:58.239Z,3.10
2019-03-02T16:11:32.700Z,3.90
2019-03-02T16:14:03.041Z,3.73
2019-03-02T16:16:36.367Z,3.33
2019-03-02T16:19:12.544Z,3.20
2019-03-02T16:21:48.683Z,3.17
2019-03-02T16:24:32.852Z,2.80
2019-03-02T16:27:02.936Z,2.50
2019-03-02T16:29:33.099Z,3.47
2019-03-02T16:32:05.232Z,2.40
2019-03-02T16:34:35.388Z,2.00
2019-03-02T16:37:08.293Z,2.03
2019-03-02T16:39:44.391Z,2.10
2019-03-02T16:42:17.468Z,1.93
2019-03-02T16:45:02.355Z,2.10
2019-03-02T16:47:35.361Z,2.70
2019-03-02T16:50:07.047Z,2.60
2019-03-02T16:52:38.833Z,3.33
2019-03-02T16:55:13.618Z,4.43
2019-03-02T16:57:47.032Z,4.50
2019-03-02T17:00:27.624Z,5.70
2019-03-02T17:03:02.910Z,6.60
2019-03-02T17:05:38.593Z,6.50
2019-03-02T17:08:08.699Z,7.87
2019-03-02T17:10:38.852Z,8.77
2019-03-02T17:13:14.833Z,11.33
2019-03-02T17:16:00.185Z,14.93
2019-03-02T17:18:33.223Z,15.17
2019-03-02T17:21:21.668Z,14.10
2019-03-02T17:23:52.022Z,13.87
2019-03-02T17:26:23.193Z,8.60
2019-03-02T17:28:56.328Z,9.47
2019-03-02T17:31:35.991Z,9.30
2019-03-02T17:34:16.719Z,6.77
2019-03-02T17:36:55.992Z,5.80
2019-03-02T17:39:27.906Z,4.67
2019-03-02T17:42:01.115Z,4.53
2019-03-02T17:44:31.263Z,3.70
2019-03-02T17:47:10.345Z,3.10
2019-03-02T17:49:47.251Z,3.47
2019-03-02T17:52:34.063Z,3.53
2019-03-02T17:55:07.501Z,3.20
2019-03-02T17:57:37.894Z,3.20
2019-03-02T18:00:29.220Z,3.30
2019-03-02T18:03:08.391Z,3.70
2019-03-02T18:05:43.912Z,4.20
2019-03-02T18:08:14.882Z,4.47
2019-03-02T18:10:45.169Z,3.00
2019-03-02T18:13:17.873Z,2.70
2019-03-02T18:16:00.302Z,2.47
2019-03-02T18:18:31.895Z,3.23
2019-03-02T18:20:59.169Z,2.80
2019-03-02T18:23:44.097Z,2.30
2019-03-02T18:26:12.685Z,2.53
2019-03-02T18:28:41.225Z,3.03
2019-03-02T18:31:09.887Z,2.17
2019-03-02T18:33:44.381Z,2.70
2019-03-02T18:36:13.498Z,2.70
2019-03-02T18:38:48.303Z,2.80
2019-03-02T18:41:16.515Z,2.67
2019-03-02T18:43:45.836Z,2.90
2019-03-02T18:46:16.415Z,3.33
2019-03-02T18:49:11.505Z,3.53
2019-03-02T18:51:35.226Z,3.50
2019-03-02T18:54:11.921Z,3.27
2019-03-02T18:56:43.044Z,3.07
2019-03-02T18:59:11.608Z,3.37
2019-03-02T19:01:40.768Z,3.80
2019-03-02T19:04:09.560Z,3.60
2019-03-02T19:06:38.113Z,4.70
2019-03-02T19:09:08.899Z,5.70
2019-03-02T19:11:38.679Z,6.07
2019-03-02T19:14:07.236Z,5.90
2019-03-02T19:16:35.888Z,5.87
2019-03-02T19:19:04.623Z,6.27
2019-03-02T19:21:33.308Z,5.93
2019-03-02T19:24:01.764Z,4.80
2019-03-02T19:26:30.207Z,6.73
2019-03-02T19:28:58.788Z,4.50
2019-03-02T19:31:27.302Z,4.33
2019-03-02T19:33:55.850Z,3.60
2019-03-02T19:36:43.628Z,6.00
2019-03-02T19:39:17.628Z,3.80
2019-03-02T19:41:46.206Z,3.80
2019-03-02T19:44:14.720Z,3.07
2019-03-02T19:46:43.259Z,3.20
2019-03-02T19:49:11.721Z,4.10
2019-03-02T19:51:40.218Z,4.90
2019-03-02T19:54:08.681Z,4.73
2019-03-02T19:56:37.111Z,5.60
2019-03-02T19:59:05.649Z,6.17
2019-03-02T20:01:34.173Z,6.70
2019-03-02T20:04:02.613Z,7.00
2019-03-02T20:06:36.855Z,7.00
2019-03-02T20:09:11.527Z,5.30
2019-03-02T20:11:39.981Z,5.30
2019-03-02T20:14:08.514Z,5.40
2019-03-02T20:16:36.964Z,4.37
2019-03-02T20:19:05.508Z,4.20
2019-03-02T20:21:35.035Z,4.43
2019-03-02T20:24:03.675Z,4.87
2019-03-02T20:26:32.308Z,5.07
2019-03-02T20:29:00.890Z,5.70
2019-03-02T20:31:29.392Z,6.77
2019-03-02T20:33:57.898Z,5.80
2019-03-02T20:36:26.366Z,5.73
2019-03-02T20:38:54.897Z,5.40
2019-03-02T20:41:23.455Z,5.43
2019-03-02T20:43:55.653Z,5.70
2019-03-02T20:46:26.216Z,5.50
2019-03-02T20:48:54.694Z,5.20
2019-03-02T20:51:25.202Z,5.77
2019-03-02T20:53:53.664Z,7.07
2019-03-02T20:56:22.264Z,6.77
2019-03-02T20:58:50.847Z,8.53
2019-03-02T21:01:19.296Z,8.23
2019-03-02T21:03:48.177Z,7.10
2019-03-02T21:06:17.048Z,6.20
2019-03-02T21:08:45.487Z,5.90
2019-03-02T21:11:13.997Z,6.70
2019-03-02T21:13:42.840Z,5.43
2019-03-02T21:16:11.490Z,5.63
2019-03-02T21:18:39.963Z,4.70
2019-03-02T21:21:08.481Z,5.67
2019-03-02T21:23:36.933Z,5.70
2019-03-02T21:26:06.188Z,5.20
2019-03-02T21:28:35.543Z,6.23
2019-03-02T21:31:04.240Z,5.53
2019-03-02T21:33:32.920Z,5.60
2019-03-02T21:36:01.442Z,4.70
2019-03-02T21:38:30.074Z,4.70
2019-03-02T21:40:59.999Z,5.13
2019-03-02T21:43:28.577Z,5.60
2019-03-02T21:45:58.139Z,4.40
2019-03-02T21:48:26.734Z,5.50
2019-03-02T21:51:01.032Z,4.70
2019-03-02T21:53:29.534Z,5.10
2019-03-02T21:55:57.999Z,5.10
2019-03-02T21:58:27.530Z,5.37
2019-03-02T22:00:56.083Z,5.00
2019-03-02T22:03:24.581Z,5.43
2019-03-02T22:05:53.110Z,5.70
2019-03-02T22:08:21.567Z,4.63
2019-03-02T22:10:53.407Z,5.13
2019-03-02T22:13:21.868Z,4.27
2019-03-02T22:15:50.358Z,4.27
2019-03-02T22:18:18.799Z,3.97
2019-03-02T22:20:47.281Z,4.00
2019-03-02T22:23:15.799Z,4.20
2019-03-02T22:25:44.336Z,4.30
2019-03-02T22:28:12.836Z,4.30
2019-03-02T22:30:41.314Z,4.30
2019-03-02T22:33:15.855Z,3.70
2019-03-02T22:35:44.378Z,3.53
2019-03-02T22:38:12.888Z,6.20
2019-03-02T22:40:41.437Z,4.00
2019-03-02T22:43:09.952Z,3.80
2019-03-02T22:45:38.417Z,3.90
2019-03-02T22:48:06.976Z,3.90
2019-03-02T22:50:35.748Z,3.93
2019-03-02T22:53:04.338Z,4.37
2019-03-02T22:55:32.821Z,3.80
2019-03-02T22:58:01.718Z,3.97
2019-03-02T23:01:05.592Z,4.40
2019-03-02T23:03:33.043Z,4.60
2019-03-02T23:06:01.530Z,4.77
2019-03-02T23:08:30.111Z,4.63
2019-03-02T23:10:58.903Z,3.53
2019-03-02T23:13:48.304Z,3.57
2019-03-02T23:16:36.099Z,3.60
2019-03-02T23:19:05.051Z,3.70
2019-03-02T23:21:33.566Z,3.90
2019-03-02T23:24:21.434Z,3.30
2019-03-02T23:26:54.662Z,3.13
2019-03-02T23:29:23.141Z,3.20
2019-03-02T23:31:51.609Z,3.10
2019-03-02T23:34:20.126Z,2.90
2019-03-02T23:36:48.648Z,2.90
2019-03-02T23:39:17.153Z,2.70
2019-03-02T23:41:45.604Z,2.70
2019-03-02T23:44:14.432Z,2.40
2019-03-02T23:46:42.946Z,2.50
2019-03-02T23:49:11.503Z,3.07
2019-03-02T23:51:40.838Z,2.67
2019-03-02T23:54:09.419Z,3.30
2019-03-02T23:56:37.928Z,3.00
2019-03-02T23:59:06.395Z,2.63
